Strona główna
METAR-TAF:

METAR-TAF

Lotnisko :

Port lotniczy Wagadugu

Wagadugu, Burkina Faso

Szerokość geograficzna: 12-21N, Długość geograficzna: 001-31W, wysokość: 316 m

Aktualna obserwacja pogody

Raport powstał 33 minut temu, godzina 12:00 UTC
Wiatr 6 kt od południe, zmienny między południowo-południowy wschód i południowy zachód
Temperatura 29°C
Wilgotność 70%
Ciśnienie 1016 hPa
Widzialność 10 km lub więcej
Rozproszone chmury na wysokości 1800 ft

METAR: DFFD 171200Z 19006KT 160V230 9999 SCT018 29/23 Q1016 NOSIG

czas: 12:33 (12:33 UTC)

Prognoza

Raport powstał 1 godzina i 33 minut temu, godzina 11:00 UTC
Prognoza ważna od 17 godzina 12 UTC do 18 godzina 18 UTC
Wiatr 10 kt od południe
Widzialność 10 km lub więcej
Rozproszone chmury na wysokości 2000 ft
Prawdopodobieństwo 30% :
Przejściowo
od 17 godzina 16 UTC do 17 godzina 24 UTC
Rozproszone chmury na wysokości 2000 ft
Mało chmury na wysokości 3300 ft, Cumulonimbus.
burza

TAF: DFFD 171100Z 1712/1818 19010KT 9999 SCT020 PROB30 TEMPO 1716/1724 TS SCT020 FEW033CB

Obserwacja i prognoza pogody dla ponad 4000 lotnisk (raport METAR i TAF).

Dostępne stacje oznaczono żółtymi i czerwonymi punktami na mapie.

Najedź kursorem aby zobaczyć nazwę stacji.

Kliknij aby zobaczyć obserwacje i prognozy pogody.

Aby zmienić mapę: kliknij na zielony przycisk z czarnym krzyżykiem, aby powiększyć; na zielony przycisk z myślnikiem, aby pomniejszyć; na zielone strzałki, aby przejść do map sąsiednich.


METAR-TAF: